Time,TemperatureF,DewpointF,PressureIn,WindDirection,WindDirectionDegrees,WindSpeedMPH,WindSpeedGustMPH,Humidity,HourlyPrecipIn,Conditions,Clouds,dailyrainin,SoftwareType,DateUTC
2013-09-10 00:04:00,73.0,68.2,30.06,NNW,344,6.0,7.0,85,0.00,,,0.00,VWS V14.01,2013-09-10 10:04:00,
2013-09-10 00:09:00,73.0,67.9,30.06,NNE,23,3.0,5.0,84,0.00,,,0.00,VWS V14.01,2013-09-10 10:09:00,
2013-09-10 00:14:00,73.1,68.0,30.06,NNE,21,4.0,5.0,84,0.00,,,0.00,VWS V14.01,2013-09-10 10:14:00,
2013-09-10 00:19:00,73.1,68.0,30.06,NE,42,5.0,5.0,84,0.00,,,0.00,VWS V14.01,2013-09-10 10:19:00,
2013-09-10 00:24:00,73.0,67.9,30.05,NE,41,5.0,5.0,84,0.00,,,0.00,VWS V14.01,2013-09-10 10:24:00,
2013-09-10 00:29:00,73.0,67.9,30.05,NE,40,5.0,5.0,84,0.00,,,0.00,VWS V14.01,2013-09-10 10:29:00,
2013-09-10 00:35:00,72.9,68.1,30.05,North,6,6.0,7.0,85,0.00,,,0.00,VWS V14.01,2013-09-10 10:35:00,
2013-09-10 00:40:00,72.9,68.1,30.05,NE,34,3.0,4.0,85,0.00,,,0.00,VWS V14.01,2013-09-10 10:40:00,
2013-09-10 00:45:00,73.0,68.2,30.05,NNE,19,3.0,5.0,85,0.00,,,0.00,VWS V14.01,2013-09-10 10:45:00,
2013-09-10 00:50:00,73.1,68.0,30.05,NNE,26,10.0,10.0,84,0.00,,,0.00,VWS V14.01,2013-09-10 10:50:00,
2013-09-10 00:55:00,73.1,68.3,30.05,NNE,23,8.0,8.0,85,0.00,,,0.00,VWS V14.01,2013-09-10 10:55:00,
2013-09-10 01:00:00,73.1,68.3,30.05,NE,41,6.0,6.0,85,0.00,,,0.00,VWS V14.01,2013-09-10 11:00:00,
2013-09-10 01:05:00,73.2,68.4,30.05,North,7,6.0,8.0,85,0.00,,,0.00,VWS V14.01,2013-09-10 11:05:00,
2013-09-10 01:10:00,73.3,68.5,30.05,North,358,5.0,5.0,85,0.00,,,0.00,VWS V14.01,2013-09-10 11:10:00,
2013-09-10 01:15:00,73.3,68.5,30.05,NE,43,4.0,5.0,85,0.00,,,0.00,VWS V14.01,2013-09-10 11:15:00,
2013-09-10 01:20:00,73.4,68.3,30.05,NNE,21,10.0,12.0,84,0.00,,,0.00,VWS V14.01,2013-09-10 11:20:00,
2013-09-10 01:26:00,73.3,68.2,30.05,NE,42,4.0,4.0,84,0.00,,,0.00,VWS V14.01,2013-09-10 11:26:00,
2013-09-10 01:31:00,73.3,68.2,30.04,NNE,25,5.0,5.0,84,0.00,,,0.00,VWS V14.01,2013-09-10 11:31:00,
2013-09-10 01:36:00,73.2,67.7,30.04,NE,43,6.0,6.0,83,0.00,,,0.00,VWS V14.01,2013-09-10 11:36:00,
2013-09-10 01:41:00,73.2,67.7,30.04,NNE,26,3.0,3.0,83,0.00,,,0.00,VWS V14.01,2013-09-10 11:41:00,
2013-09-10 01:46:00,73.1,67.6,30.04,NE,38,4.0,4.0,83,0.00,,,0.00,VWS V14.01,2013-09-10 11:46:00,
2013-09-10 01:51:00,73.0,67.5,30.04,NNE,21,4.0,4.0,83,0.00,,,0.00,VWS V14.01,2013-09-10 11:51:00,
2013-09-10 01:56:00,73.0,67.5,30.04,NE,40,6.0,6.0,83,0.00,,,0.00,VWS V14.01,2013-09-10 11:56:00,
2013-09-10 02:02:00,72.9,66.7,30.03,East,95,6.0,7.0,81,0.00,,,0.00,VWS V14.01,2013-09-10 12:02:00,
2013-09-10 02:07:00,72.9,66.7,30.03,NNE,21,7.0,7.0,81,0.00,,,0.00,VWS V14.01,2013-09-10 12:07:00,
2013-09-10 02:12:00,73.0,67.2,30.03,NNE,17,7.0,10.0,82,0.00,,,0.00,VWS V14.01,2013-09-10 12:12:00,
2013-09-10 02:17:00,73.1,67.3,30.03,NNE,12,8.0,8.0,82,0.00,,,0.00,VWS V14.01,2013-09-10 12:17:00,
2013-09-10 02:22:00,72.9,67.1,30.03,NNE,21,6.0,6.0,82,0.00,,,0.00,VWS V14.01,2013-09-10 12:22:00,
2013-09-10 02:27:00,72.9,67.4,30.03,NE,51,3.0,3.0,83,0.00,,,0.00,VWS V14.01,2013-09-10 12:27:00,
2013-09-10 02:32:00,72.9,67.4,30.03,NE,40,6.0,6.0,83,0.00,,,0.00,VWS V14.01,2013-09-10 12:32:00,
2013-09-10 02:37:00,72.9,67.8,30.03,NE,49,2.0,4.0,84,0.00,,,0.00,VWS V14.01,2013-09-10 12:37:00,
2013-09-10 02:42:00,73.0,67.9,30.02,North,358,5.0,6.0,84,0.00,,,0.00,VWS V14.01,2013-09-10 12:42:00,
2013-09-10 02:48:00,73.1,68.0,30.02,NNE,16,7.0,7.0,84,0.00,,,0.00,VWS V14.01,2013-09-10 12:48:00,
2013-09-10 02:53:00,73.2,68.4,30.02,NE,49,7.0,8.0,85,0.00,,,0.00,VWS V14.01,2013-09-10 12:53:00,
2013-09-10 02:58:00,73.1,68.3,30.02,NE,47,5.0,5.0,85,0.00,,,0.00,VWS V14.01,2013-09-10 12:58:00,
2013-09-10 03:03:00,73.1,68.3,30.02,NE,47,6.0,7.0,85,0.00,,,0.00,VWS V14.01,2013-09-10 13:03:00,
2013-09-10 03:08:00,73.0,68.2,30.02,NE,40,4.0,7.0,85,0.00,,,0.00,VWS V14.01,2013-09-10 13:08:00,
2013-09-10 03:13:00,72.9,68.1,30.02,NNE,31,4.0,5.0,85,0.00,,,0.00,VWS V14.01,2013-09-10 13:13:00,
2013-09-10 03:18:00,72.8,68.0,30.01,NW,309,12.0,12.0,85,0.00,,,0.00,VWS V14.01,2013-09-10 13:18:00,
2013-09-10 03:23:00,72.8,68.4,30.02,NNE,24,5.0,5.0,86,0.00,,,0.00,VWS V14.01,2013-09-10 13:23:00,
2013-09-10 03:28:00,73.0,68.2,30.01,NNE,22,5.0,7.0,85,0.00,,,0.00,VWS V14.01,2013-09-10 13:28:00,
2013-09-10 03:33:00,73.0,68.2,30.01,NNE,31,6.0,7.0,85,0.00,,,0.00,VWS V14.01,2013-09-10 13:33:00,
2013-09-10 03:39:00,73.0,68.2,30.01,NNE,26,5.0,7.0,85,0.00,,,0.00,VWS V14.01,2013-09-10 13:39:00,
2013-09-10 03:44:00,73.0,68.2,30.01,NNE,25,6.0,8.0,85,0.00,,,0.00,VWS V14.01,2013-09-10 13:44:00,
2013-09-10 03:49:00,73.0,68.2,30.01,NE,37,10.0,10.0,85,0.00,,,0.00,VWS V14.01,2013-09-10 13:49:00,
2013-09-10 03:54:00,73.1,68.0,30.01,NE,45,6.0,6.0,84,0.00,,,0.00,VWS V14.01,2013-09-10 13:54:00,
2013-09-10 03:59:00,73.2,68.1,30.01,NE,50,2.0,3.0,84,0.00,,,0.00,VWS V14.01,2013-09-10 13:59:00,
2013-09-10 04:04:00,73.2,68.1,30.01,East,85,2.0,7.0,84,0.00,,,0.00,VWS V14.01,2013-09-10 14:04:00,
2013-09-10 04:09:00,73.1,68.0,30.01,NE,35,5.0,5.0,84,0.00,,,0.00,VWS V14.01,2013-09-10 14:09:00,
2013-09-10 04:14:00,73.1,68.3,30.01,NNE,25,8.0,11.0,85,0.00,,,0.00,VWS V14.01,2013-09-10 14:14:00,
2013-09-10 04:19:00,73.1,68.3,30.01,NNE,12,7.0,7.0,85,0.00,,,0.00,VWS V14.01,2013-09-10 14:19:00,
2013-09-10 04:24:00,73.2,68.4,30.01,NNE,14,5.0,7.0,85,0.00,,,0.00,VWS V14.01,2013-09-10 14:24:00,
2013-09-10 04:29:00,73.3,68.5,30.01,North,1,5.0,5.0,85,0.00,,,0.00,VWS V14.01,2013-09-10 14:29:00,
2013-09-10 04:35:00,73.3,68.5,30.01,NNE,27,6.0,7.0,85,0.00,,,0.00,VWS V14.01,2013-09-10 14:35:00,
2013-09-10 04:40:00,73.3,68.5,30.01,NE,41,5.0,5.0,85,0.00,,,0.00,VWS V14.01,2013-09-10 14:40:00,
2013-09-10 04:45:00,73.3,68.2,30.01,NE,42,4.0,7.0,84,0.00,,,0.00,VWS V14.01,2013-09-10 14:45:00,
2013-09-10 04:50:00,73.3,68.5,30.02,NE,47,6.0,6.0,85,0.00,,,0.00,VWS V14.01,2013-09-10 14:50:00,
2013-09-10 04:55:00,73.3,68.9,30.02,NNE,14,7.0,7.0,86,0.00,,,0.00,VWS V14.01,2013-09-10 14:55:00,
2013-09-10 05:00:00,73.1,68.7,30.02,NE,42,5.0,6.0,86,0.00,,,0.00,VWS V14.01,2013-09-10 15:00:00,
2013-09-10 05:05:00,73.0,68.6,30.02,NNE,33,4.0,4.0,86,0.00,,,0.00,VWS V14.01,2013-09-10 15:05:00,
2013-09-10 05:11:00,73.0,68.6,30.02,NE,38,10.0,10.0,86,0.00,,,0.00,VWS V14.01,2013-09-10 15:11:00,
2013-09-10 05:16:00,73.0,68.6,30.02,NE,43,4.0,8.0,86,0.00,,,0.00,VWS V14.01,2013-09-10 15:16:00,
2013-09-10 05:21:00,73.0,68.6,30.02,NE,53,5.0,6.0,86,0.00,,,0.00,VWS V14.01,2013-09-10 15:21:00,
2013-09-10 05:26:00,72.9,68.1,30.01,NNE,20,9.0,9.0,85,0.00,,,0.00,VWS V14.01,2013-09-10 15:26:00,
2013-09-10 05:31:00,73.0,68.2,30.01,NNE,21,9.0,12.0,85,0.00,,,0.00,VWS V14.01,2013-09-10 15:31:00,
2013-09-10 05:36:00,73.1,68.3,30.01,ENE,66,6.0,10.0,85,0.00,,,0.00,VWS V14.01,2013-09-10 15:36:00,
2013-09-10 05:41:00,73.2,68.1,30.02,ENE,57,5.0,7.0,84,0.00,,,0.00,VWS V14.01,2013-09-10 15:41:00,
2013-09-10 05:46:00,73.3,68.5,30.02,NE,35,8.0,11.0,85,0.00,,,0.00,VWS V14.01,2013-09-10 15:46:00,
2013-09-10 05:51:00,73.2,68.4,30.01,ENE,64,8.0,10.0,85,0.00,,,0.00,VWS V14.01,2013-09-10 15:51:00,
2013-09-10 05:56:00,73.2,68.4,30.02,NNE,14,16.0,19.0,85,0.00,,,0.00,VWS V14.01,2013-09-10 15:56:00,
2013-09-10 06:01:00,73.4,68.6,30.02,NE,49,10.0,14.0,85,0.00,,,0.00,VWS V14.01,2013-09-10 16:01:00,
2013-09-10 06:07:00,73.4,68.6,30.02,NE,35,8.0,8.0,85,0.00,,,0.00,VWS V14.01,2013-09-10 16:07:00,
2013-09-10 06:12:00,73.4,68.6,30.02,NNE,18,8.0,13.0,85,0.00,,,0.00,VWS V14.01,2013-09-10 16:12:00,
2013-09-10 06:17:00,73.3,68.5,30.03,NE,47,6.0,8.0,85,0.00,,,0.00,VWS V14.01,2013-09-10 16:17:00,
2013-09-10 06:22:00,73.3,68.2,30.02,NNE,20,9.0,9.0,84,0.00,,,0.00,VWS V14.01,2013-09-10 16:22:00,
2013-09-10 06:27:00,73.4,67.9,30.02,NNE,14,9.0,9.0,83,0.00,,,0.00,VWS V14.01,2013-09-10 16:27:00,
2013-09-10 06:32:00,73.5,68.4,30.02,NE,54,7.0,7.0,84,0.00,,,0.00,VWS V14.01,2013-09-10 16:32:00,
2013-09-10 06:38:00,73.5,68.4,30.02,NNE,19,7.0,7.0,84,0.00,,,0.00,VWS V14.01,2013-09-10 16:38:00,
2013-09-10 06:43:00,73.8,68.7,30.02,ESE,102,8.0,8.0,84,0.00,,,0.00,VWS V14.01,2013-09-10 16:43:00,
2013-09-10 06:48:00,74.0,68.5,30.02,ENE,57,2.0,4.0,83,0.00,,,0.00,VWS V14.01,2013-09-10 16:48:00,
2013-09-10 06:53:00,74.2,68.4,30.02,NE,40,7.0,9.0,82,0.00,,,0.00,VWS V14.01,2013-09-10 16:53:00,
2013-09-10 06:58:00,74.2,68.0,30.02,NE,47,4.0,6.0,81,0.00,,,0.00,VWS V14.01,2013-09-10 16:58:00,
2013-09-10 07:03:00,73.9,68.1,30.03,NNE,28,5.0,5.0,82,0.00,,,0.00,VWS V14.01,2013-09-10 17:03:00,
2013-09-10 07:08:00,73.8,68.0,30.03,NNE,29,3.0,3.0,82,0.00,,,0.00,VWS V14.01,2013-09-10 17:08:00,
2013-09-10 07:13:00,73.6,67.8,30.03,North,9,3.0,4.0,82,0.00,,,0.00,VWS V14.01,2013-09-10 17:13:00,
2013-09-10 07:18:00,73.7,68.2,30.03,NNE,20,2.0,3.0,83,0.00,,,0.00,VWS V14.01,2013-09-10 17:18:00,
2013-09-10 07:24:00,73.7,68.2,30.03,ENE,64,3.0,4.0,83,0.00,,,0.00,VWS V14.01,2013-09-10 17:24:00,
2013-09-10 07:29:00,73.7,68.2,30.03,NNE,19,6.0,6.0,83,0.00,,,0.00,VWS V14.01,2013-09-10 17:29:00,
2013-09-10 07:34:00,73.7,68.2,30.03,NE,51,5.0,5.0,83,0.00,,,0.00,VWS V14.01,2013-09-10 17:34:00,
2013-09-10 07:39:00,73.5,67.7,30.04,NE,47,6.0,8.0,82,0.00,,,0.00,VWS V14.01,2013-09-10 17:39:00,
2013-09-10 07:44:00,73.3,68.2,30.04,NNE,19,8.0,8.0,84,0.00,,,0.00,VWS V14.01,2013-09-10 17:44:00,
2013-09-10 07:49:00,73.2,67.7,30.04,ENE,64,6.0,8.0,83,0.00,,,0.00,VWS V14.01,2013-09-10 17:49:00,
2013-09-10 07:54:00,73.3,67.5,30.04,NE,43,2.0,4.0,82,0.00,,,0.00,VWS V14.01,2013-09-10 17:54:00,
2013-09-10 08:00:00,73.6,67.4,30.04,NE,39,4.0,5.0,81,0.00,,,0.00,VWS V14.01,2013-09-10 18:00:00,
2013-09-10 08:05:00,74.0,67.4,30.04,ENE,59,6.0,6.0,80,0.00,,,0.00,VWS V14.01,2013-09-10 18:05:00,
2013-09-10 08:10:00,74.3,67.7,30.04,NNE,23,3.0,6.0,80,0.00,,,0.00,VWS V14.01,2013-09-10 18:10:00,
2013-09-10 08:15:00,75.1,68.5,30.05,NE,36,9.0,10.0,80,0.00,,,0.00,VWS V14.01,2013-09-10 18:15:00,
2013-09-10 08:20:00,74.9,68.7,30.05,ENE,78,1.0,2.0,81,0.00,,,0.00,VWS V14.01,2013-09-10 18:20:00,
2013-09-10 08:25:00,74.9,68.3,30.05,NE,37,7.0,8.0,80,0.00,,,0.00,VWS V14.01,2013-09-10 18:25:00,
2013-09-10 08:30:00,75.1,68.5,30.05,NE,38,5.0,9.0,80,0.00,,,0.00,VWS V14.01,2013-09-10 18:30:00,
2013-09-10 08:35:00,75.7,69.1,30.05,ENE,63,2.0,4.0,80,0.00,,,0.00,VWS V14.01,2013-09-10 18:35:00,
2013-09-10 08:40:00,76.1,69.1,30.05,NE,47,7.0,8.0,79,0.00,,,0.00,VWS V14.01,2013-09-10 18:40:00,
2013-09-10 08:45:00,75.9,68.9,30.05,ESE,102,5.0,8.0,79,0.00,,,0.00,VWS V14.01,2013-09-10 18:45:00,
2013-09-10 08:51:00,75.6,69.0,30.05,NE,42,7.0,7.0,80,0.00,,,0.00,VWS V14.01,2013-09-10 18:51:00,
2013-09-10 08:56:00,75.6,69.0,30.05,SE,129,5.0,8.0,80,0.00,,,0.00,VWS V14.01,2013-09-10 18:56:00,
2013-09-10 09:01:00,75.7,69.1,30.05,ESE,114,13.0,16.0,80,0.00,,,0.00,VWS V14.01,2013-09-10 19:01:00,
2013-09-10 09:06:00,75.2,69.0,30.05,East,101,7.0,10.0,81,0.00,,,0.00,VWS V14.01,2013-09-10 19:06:00,
2013-09-10 09:11:00,75.1,69.2,30.06,East,90,6.0,7.0,82,0.00,,,0.00,VWS V14.01,2013-09-10 19:11:00,
2013-09-10 09:16:00,75.2,69.3,30.05,East,99,8.0,8.0,82,0.00,,,0.00,VWS V14.01,2013-09-10 19:16:00,
2013-09-10 09:21:00,75.4,69.5,30.05,ENE,76,8.0,9.0,82,0.00,,,0.00,VWS V14.01,2013-09-10 19:21:00,
2013-09-10 09:26:00,75.3,69.1,30.05,East,87,4.0,6.0,81,0.00,,,0.00,VWS V14.01,2013-09-10 19:26:00,
2013-09-10 09:31:00,75.8,69.9,30.05,East,98,8.0,9.0,82,0.00,,,0.00,VWS V14.01,2013-09-10 19:31:00,
2013-09-10 09:36:00,76.5,69.1,30.05,ENE,64,7.0,8.0,78,0.00,,,0.00,VWS V14.01,2013-09-10 19:36:00,
2013-09-10 09:41:00,76.6,70.0,30.05,East,82,7.0,7.0,80,0.00,,,0.00,VWS V14.01,2013-09-10 19:41:00,
2013-09-10 09:47:00,77.6,70.2,30.05,NE,54,7.0,11.0,78,0.00,,,0.00,VWS V14.01,2013-09-10 19:47:00,
2013-09-10 09:52:00,77.6,69.4,30.05,East,97,6.0,7.0,76,0.00,,,0.00,VWS V14.01,2013-09-10 19:52:00,
2013-09-10 09:57:00,77.7,69.5,30.05,NNE,27,4.0,10.0,76,0.00,,,0.00,VWS V14.01,2013-09-10 19:57:00,
2013-09-10 10:02:00,78.3,69.7,30.06,ENE,60,8.0,10.0,75,0.00,,,0.00,VWS V14.01,2013-09-10 20:02:00,
2013-09-10 10:07:00,78.0,69.4,30.05,East,88,5.0,5.0,75,0.00,,,0.00,VWS V14.01,2013-09-10 20:07:00,
2013-09-10 10:12:00,77.2,69.8,30.06,ENE,70,9.0,11.0,78,0.00,,,0.00,VWS V14.01,2013-09-10 20:12:00,
2013-09-10 10:17:00,76.7,69.3,30.06,ENE,67,17.0,17.0,78,0.00,,,0.00,VWS V14.01,2013-09-10 20:17:00,
2013-09-10 10:22:00,76.9,69.5,30.05,NE,53,9.0,9.0,78,0.00,,,0.00,VWS V14.01,2013-09-10 20:22:00,
2013-09-10 10:27:00,77.1,69.7,30.05,ENE,71,11.0,12.0,78,0.00,,,0.00,VWS V14.01,2013-09-10 20:27:00,
2013-09-10 10:33:00,77.5,69.3,30.05,NE,50,9.0,12.0,76,0.00,,,0.00,VWS V14.01,2013-09-10 20:33:00,
2013-09-10 10:38:00,77.5,69.7,30.05,NNE,19,3.0,3.0,77,0.00,,,0.00,VWS V14.01,2013-09-10 20:38:00,
2013-09-10 10:43:00,77.8,70.0,30.05,ESE,112,16.0,16.0,77,0.00,,,0.00,VWS V14.01,2013-09-10 20:43:00,
2013-09-10 10:48:00,77.5,69.7,30.05,ENE,68,5.0,6.0,77,0.00,,,0.00,VWS V14.01,2013-09-10 20:48:00,
2013-09-10 10:53:00,77.5,69.3,30.05,East,92,6.0,7.0,76,0.00,,,0.00,VWS V14.01,2013-09-10 20:53:00,
2013-09-10 10:58:00,77.6,69.4,30.05,ESE,102,10.0,13.0,76,0.00,,,0.00,VWS V14.01,2013-09-10 20:58:00,
2013-09-10 11:03:00,77.4,69.6,30.05,East,96,11.0,11.0,77,0.00,,,0.00,VWS V14.01,2013-09-10 21:03:00,
2013-09-10 11:08:00,76.8,69.8,30.05,East,99,9.0,10.0,79,0.00,,,0.00,VWS V14.01,2013-09-10 21:08:00,
2013-09-10 11:14:00,77.7,70.3,30.04,NE,38,13.0,13.0,78,0.00,,,0.00,VWS V14.01,2013-09-10 21:14:00,
2013-09-10 11:19:00,78.1,70.3,30.04,East,82,5.0,6.0,77,0.00,,,0.00,VWS V14.01,2013-09-10 21:19:00,
2013-09-10 11:24:00,78.9,69.5,30.03,ESE,110,15.0,15.0,73,0.00,,,0.00,VWS V14.01,2013-09-10 21:24:00,
2013-09-10 11:29:00,79.3,69.5,30.03,ENE,66,9.0,9.0,72,0.00,,,0.00,VWS V14.01,2013-09-10 21:29:00,
2013-09-10 11:34:00,79.0,69.6,30.03,SE,130,11.0,14.0,73,0.00,,,0.00,VWS V14.01,2013-09-10 21:34:00,
2013-09-10 11:39:00,78.9,70.3,30.03,ENE,72,10.0,10.0,75,0.00,,,0.00,VWS V14.01,2013-09-10 21:39:00,
2013-09-10 11:44:00,79.5,69.7,30.02,ENE,73,6.0,6.0,72,0.00,,,0.00,VWS V14.01,2013-09-10 21:44:00,
2013-09-10 11:49:00,80.0,69.8,30.03,ENE,64,12.0,12.0,71,0.00,,,0.00,VWS V14.01,2013-09-10 21:49:00,
2013-09-10 11:54:00,79.9,70.5,30.02,NNE,33,9.0,11.0,73,0.00,,,0.00,VWS V14.01,2013-09-10 21:54:00,
2013-09-10 12:00:00,79.0,70.8,30.02,NE,38,19.0,19.0,76,0.00,,,0.00,VWS V14.01,2013-09-10 22:00:00,
2013-09-10 12:05:00,79.0,70.4,30.02,NE,50,9.0,11.0,75,0.00,,,0.00,VWS V14.01,2013-09-10 22:05:00,
2013-09-10 12:10:00,79.6,71.0,30.02,ESE,115,11.0,13.0,75,0.00,,,0.00,VWS V14.01,2013-09-10 22:10:00,
2013-09-10 12:15:00,79.2,70.6,30.02,East,99,14.0,14.0,75,0.00,,,0.00,VWS V14.01,2013-09-10 22:15:00,
2013-09-10 12:20:00,78.6,70.8,30.03,ESE,109,10.0,10.0,77,0.00,,,0.00,VWS V14.01,2013-09-10 22:20:00,
2013-09-10 12:25:00,78.7,70.1,30.02,NNE,22,17.0,19.0,75,0.00,,,0.00,VWS V14.01,2013-09-10 22:25:00,
2013-09-10 12:30:00,78.0,70.6,30.02,ENE,73,13.0,13.0,78,0.00,,,0.00,VWS V14.01,2013-09-10 22:30:00,
2013-09-10 12:35:00,78.1,69.9,30.02,ENE,58,14.0,16.0,76,0.00,,,0.00,VWS V14.01,2013-09-10 22:35:00,
2013-09-10 12:41:00,77.7,70.3,30.02,East,97,18.0,21.0,78,0.00,,,0.00,VWS V14.01,2013-09-10 22:41:00,
2013-09-10 12:46:00,77.7,70.7,30.01,East,80,7.0,10.0,79,0.00,,,0.00,VWS V14.01,2013-09-10 22:46:00,
2013-09-10 12:51:00,77.9,70.9,30.01,ENE,57,11.0,12.0,79,0.00,,,0.00,VWS V14.01,2013-09-10 22:51:00,
2013-09-10 12:56:00,77.9,70.9,30.01,NE,44,1.0,1.0,79,0.00,,,0.00,VWS V14.01,2013-09-10 22:56:00,
2013-09-10 13:01:00,77.8,70.0,30.01,East,93,12.0,12.0,77,0.00,,,0.00,VWS V14.01,2013-09-10 23:01:00,
2013-09-10 13:06:00,78.2,70.0,30.01,East,82,13.0,13.0,76,0.00,,,0.00,VWS V14.01,2013-09-10 23:06:00,
2013-09-10 13:11:00,78.5,70.7,30.01,ENE,64,10.0,11.0,77,0.00,,,0.00,VWS V14.01,2013-09-10 23:11:00,
2013-09-10 13:16:00,78.6,70.4,30.01,East,100,17.0,17.0,76,0.00,,,0.00,VWS V14.01,2013-09-10 23:16:00,
2013-09-10 13:21:00,78.7,70.5,30.01,NE,37,9.0,17.0,76,0.00,,,0.00,VWS V14.01,2013-09-10 23:21:00,
2013-09-10 13:27:00,78.6,70.4,30.01,ENE,78,12.0,14.0,76,0.00,,,0.00,VWS V14.01,2013-09-10 23:27:00,
2013-09-10 13:32:00,78.3,69.7,30.01,East,82,11.0,12.0,75,0.00,,,0.00,VWS V14.01,2013-09-10 23:32:00,
2013-09-10 13:37:00,78.1,69.5,30.01,NE,47,13.0,17.0,75,0.00,,,0.00,VWS V14.01,2013-09-10 23:37:00,
2013-09-10 13:42:00,78.6,70.4,30.01,ENE,76,9.0,11.0,76,0.00,,,0.00,VWS V14.01,2013-09-10 23:42:00,
2013-09-10 13:47:00,78.8,70.6,30.00,ESE,104,19.0,19.0,76,0.00,,,0.00,VWS V14.01,2013-09-10 23:47:00,
2013-09-10 13:52:00,78.8,69.4,30.01,East,87,17.0,19.0,73,0.00,,,0.00,VWS V14.01,2013-09-10 23:52:00,
2013-09-10 13:57:00,78.2,69.2,30.00,East,94,18.0,19.0,74,0.00,,,0.00,VWS V14.01,2013-09-10 23:57:00,
2013-09-10 14:02:00,78.3,70.1,30.00,East,94,10.0,14.0,76,0.00,,,0.00,VWS V14.01,2013-09-11 00:02:00,
2013-09-10 14:07:00,77.6,69.4,30.00,ENE,70,11.0,12.0,76,0.00,,,0.00,VWS V14.01,2013-09-11 00:07:00,
2013-09-10 14:12:00,77.5,70.1,30.00,East,81,11.0,11.0,78,0.00,,,0.00,VWS V14.01,2013-09-11 00:12:00,
2013-09-10 14:18:00,77.1,69.7,30.00,NE,47,5.0,8.0,78,0.00,,,0.00,VWS V14.01,2013-09-11 00:18:00,
2013-09-10 14:23:00,77.3,70.3,29.99,East,92,9.0,12.0,79,0.00,,,0.00,VWS V14.01,2013-09-11 00:23:00,
2013-09-10 14:28:00,77.3,70.3,29.99,ENE,71,9.0,14.0,79,0.00,,,0.00,VWS V14.01,2013-09-11 00:28:00,
2013-09-10 14:33:00,77.5,70.5,29.99,ENE,61,10.0,10.0,79,0.00,,,0.00,VWS V14.01,2013-09-11 00:33:00,
2013-09-10 14:38:00,77.4,70.4,29.99,ENE,59,9.0,9.0,79,0.00,,,0.00,VWS V14.01,2013-09-11 00:38:00,
2013-09-10 14:43:00,77.4,70.4,29.99,ENE,57,10.0,11.0,79,0.00,,,0.00,VWS V14.01,2013-09-11 00:43:00,
2013-09-10 14:48:00,77.3,70.3,29.99,NE,47,11.0,14.0,79,0.00,,,0.00,VWS V14.01,2013-09-11 00:48:00,
2013-09-10 14:53:00,76.8,70.5,29.99,NE,52,13.0,20.0,81,0.00,,,0.00,VWS V14.01,2013-09-11 00:53:00,
2013-09-10 14:59:00,76.7,70.8,29.99,ESE,106,16.0,16.0,82,0.00,,,0.00,VWS V14.01,2013-09-11 00:59:00,
2013-09-10 15:04:00,76.8,70.9,29.99,ENE,71,10.0,12.0,82,0.00,,,0.00,VWS V14.01,2013-09-11 01:04:00,
2013-09-10 15:09:00,76.6,71.1,29.98,NNE,24,9.0,9.0,83,0.00,,,0.00,VWS V14.01,2013-09-11 01:09:00,
2013-09-10 15:14:00,76.6,71.1,29.98,NE,42,12.0,14.0,83,0.00,,,0.00,VWS V14.01,2013-09-11 01:14:00,
2013-09-10 15:19:00,76.5,70.2,29.98,North,3,10.0,12.0,81,0.00,,,0.00,VWS V14.01,2013-09-11 01:19:00,
2013-09-10 15:24:00,76.7,70.4,29.98,NNE,31,12.0,12.0,81,0.00,,,0.00,VWS V14.01,2013-09-11 01:24:00,
2013-09-10 15:29:00,76.7,70.4,29.98,ENE,64,8.0,8.0,81,0.00,,,0.00,VWS V14.01,2013-09-11 01:29:00,
2013-09-10 15:34:00,76.7,70.8,29.98,NE,42,13.0,13.0,82,0.00,,,0.00,VWS V14.01,2013-09-11 01:34:00,
2013-09-10 15:39:00,76.5,69.9,29.98,ENE,57,12.0,12.0,80,0.00,,,0.00,VWS V14.01,2013-09-11 01:39:00,
2013-09-10 15:45:00,76.6,70.3,29.98,NE,54,11.0,11.0,81,0.00,,,0.00,VWS V14.01,2013-09-11 01:45:00,
2013-09-10 15:50:00,76.5,71.0,29.98,NE,55,13.0,13.0,83,0.00,,,0.00,VWS V14.01,2013-09-11 01:50:00,
2013-09-10 15:55:00,76.2,70.7,29.98,ENE,59,11.0,11.0,83,0.00,,,0.00,VWS V14.01,2013-09-11 01:55:00,
2013-09-10 16:00:00,75.8,70.3,29.98,East,98,8.0,8.0,83,0.00,,,0.00,VWS V14.01,2013-09-11 02:00:00,
2013-09-10 16:05:00,75.6,70.1,29.98,NE,34,6.0,8.0,83,0.00,,,0.00,VWS V14.01,2013-09-11 02:05:00,
2013-09-10 16:10:00,76.0,70.5,29.98,NNE,15,10.0,14.0,83,0.00,,,0.00,VWS V14.01,2013-09-11 02:10:00,
2013-09-10 16:15:00,76.3,70.4,29.98,NE,51,16.0,16.0,82,0.00,,,0.00,VWS V14.01,2013-09-11 02:15:00,
2013-09-10 16:20:00,76.4,70.1,29.98,NNE,28,4.0,11.0,81,0.00,,,0.00,VWS V14.01,2013-09-11 02:20:00,
2013-09-10 16:26:00,76.5,70.2,29.98,North,357,12.0,13.0,81,0.00,,,0.00,VWS V14.01,2013-09-11 02:26:00,
2013-09-10 16:31:00,76.5,69.9,29.98,NNE,15,10.0,11.0,80,0.00,,,0.00,VWS V14.01,2013-09-11 02:31:00,
2013-09-10 16:36:00,76.0,70.1,29.98,North,5,8.0,13.0,82,0.00,,,0.00,VWS V14.01,2013-09-11 02:36:00,
2013-09-10 16:41:00,75.8,70.3,29.98,NNW,341,6.0,7.0,83,0.00,,,0.00,VWS V14.01,2013-09-11 02:41:00,
2013-09-10 16:46:00,75.8,70.6,29.99,NE,55,7.0,7.0,84,0.00,,,0.00,VWS V14.01,2013-09-11 02:46:00,
2013-09-10 16:51:00,75.8,71.0,29.99,NE,36,5.0,8.0,85,0.00,,,0.00,VWS V14.01,2013-09-11 02:51:00,
2013-09-10 16:56:00,75.8,70.6,29.99,NNE,19,13.0,14.0,84,0.00,,,0.00,VWS V14.01,2013-09-11 02:56:00,
2013-09-10 17:01:00,75.7,70.5,29.99,ENE,72,7.0,9.0,84,0.00,,,0.00,VWS V14.01,2013-09-11 03:01:00,
2013-09-10 17:06:00,75.7,70.9,29.99,ENE,64,8.0,10.0,85,0.00,,,0.00,VWS V14.01,2013-09-11 03:06:00,
2013-09-10 17:11:00,75.5,70.7,29.99,NE,43,9.0,13.0,85,0.00,,,0.00,VWS V14.01,2013-09-11 03:11:00,
2013-09-10 17:16:00,75.4,70.6,29.99,NNE,16,11.0,11.0,85,0.00,,,0.00,VWS V14.01,2013-09-11 03:16:00,
2013-09-10 17:21:00,75.4,70.6,29.99,NE,46,5.0,7.0,85,0.00,,,0.00,VWS V14.01,2013-09-11 03:21:00,
2013-09-10 17:27:00,75.3,70.5,29.99,NNE,32,6.0,6.0,85,0.00,,,0.00,VWS V14.01,2013-09-11 03:27:00,
2013-09-10 17:32:00,75.3,70.5,29.99,NE,34,10.0,10.0,85,0.00,,,0.00,VWS V14.01,2013-09-11 03:32:00,
2013-09-10 17:37:00,75.2,70.4,29.99,NNE,12,8.0,8.0,85,0.00,,,0.00,VWS V14.01,2013-09-11 03:37:00,
2013-09-10 17:42:00,75.2,70.4,30.00,ENE,59,8.0,9.0,85,0.00,,,0.00,VWS V14.01,2013-09-11 03:42:00,
2013-09-10 17:47:00,75.1,70.3,30.00,ENE,69,8.0,11.0,85,0.00,,,0.00,VWS V14.01,2013-09-11 03:47:00,
2013-09-10 17:52:00,75.0,70.2,30.00,NE,34,10.0,10.0,85,0.00,,,0.00,VWS V14.01,2013-09-11 03:52:00,
2013-09-10 17:57:00,75.1,70.3,30.00,NE,52,11.0,12.0,85,0.00,,,0.00,VWS V14.01,2013-09-11 03:57:00,
2013-09-10 18:01:00,75.0,70.2,30.00,NE,55,11.0,14.0,85,0.00,,,0.00,VWS V14.01,2013-09-11 04:01:00,
2013-09-10 18:02:00,75.0,70.2,30.00,NE,40,10.0,12.0,85,0.00,,,0.00,VWS V14.01,2013-09-11 04:02:00,
2013-09-10 18:05:00,75.0,70.2,30.00,NE,36,12.0,18.0,85,0.00,,,0.00,VWS V14.01,2013-09-11 04:05:00,
2013-09-10 18:10:00,74.9,70.1,30.00,ENE,62,10.0,10.0,85,0.00,,,0.00,VWS V14.01,2013-09-11 04:10:00,
2013-09-10 18:15:00,74.9,70.1,30.00,NE,53,11.0,15.0,85,0.00,,,0.00,VWS V14.01,2013-09-11 04:15:00,
2013-09-10 18:20:00,74.8,70.0,30.00,NNE,27,8.0,14.0,85,0.00,,,0.00,VWS V14.01,2013-09-11 04:20:00,
2013-09-10 18:25:00,74.9,70.1,30.00,NE,34,10.0,16.0,85,0.00,,,0.00,VWS V14.01,2013-09-11 04:25:00,
2013-09-10 18:30:00,74.9,70.1,30.00,NNE,29,10.0,15.0,85,0.00,,,0.00,VWS V14.01,2013-09-11 04:30:00,
2013-09-10 18:35:00,74.8,70.3,30.01,NNE,28,11.0,11.0,86,0.00,,,0.00,VWS V14.01,2013-09-11 04:35:00,
2013-09-10 18:40:00,74.8,70.3,30.01,NNE,31,12.0,12.0,86,0.00,,,0.00,VWS V14.01,2013-09-11 04:40:00,
2013-09-10 18:45:00,74.6,70.5,30.01,NE,39,6.0,6.0,87,0.00,,,0.00,VWS V14.01,2013-09-11 04:45:00,
2013-09-10 18:51:00,74.6,70.5,30.02,NNE,24,7.0,8.0,87,0.00,,,0.00,VWS V14.01,2013-09-11 04:51:00,
2013-09-10 18:56:00,74.5,70.4,30.02,NE,40,11.0,12.0,87,0.00,,,0.00,VWS V14.01,2013-09-11 04:56:00,
2013-09-10 19:01:00,74.5,70.7,30.02,NNE,26,7.0,9.0,88,0.00,,,0.00,VWS V14.01,2013-09-11 05:01:00,
2013-09-10 19:06:00,74.5,70.4,30.02,NNE,25,11.0,14.0,87,0.00,,,0.00,VWS V14.01,2013-09-11 05:06:00,
2013-09-10 19:11:00,74.5,70.7,30.02,NE,45,8.0,9.0,88,0.00,,,0.00,VWS V14.01,2013-09-11 05:11:00,
2013-09-10 19:16:00,74.5,70.7,30.02,NNE,23,9.0,12.0,88,0.00,,,0.00,VWS V14.01,2013-09-11 05:16:00,
2013-09-10 19:21:00,74.5,70.7,30.02,NE,45,6.0,7.0,88,0.00,,,0.00,VWS V14.01,2013-09-11 05:21:00,
2013-09-10 19:26:00,74.5,70.7,30.02,NE,46,8.0,12.0,88,0.00,,,0.00,VWS V14.01,2013-09-11 05:26:00,
2013-09-10 19:31:00,74.4,70.6,30.02,NE,56,10.0,12.0,88,0.00,,,0.00,VWS V14.01,2013-09-11 05:31:00,
2013-09-10 19:37:00,74.4,70.6,30.02,NE,42,9.0,9.0,88,0.00,,,0.00,VWS V14.01,2013-09-11 05:37:00,
2013-09-10 19:42:00,74.4,70.6,30.03,NNE,23,9.0,9.0,88,0.00,,,0.00,VWS V14.01,2013-09-11 05:42:00,
2013-09-10 19:47:00,74.5,70.7,30.03,NE,47,5.0,5.0,88,0.00,,,0.00,VWS V14.01,2013-09-11 05:47:00,
2013-09-10 19:52:00,74.5,70.7,30.03,NNE,26,13.0,13.0,88,0.00,,,0.00,VWS V14.01,2013-09-11 05:52:00,
2013-09-10 19:57:00,74.5,70.7,30.03,NNE,23,8.0,8.0,88,0.00,,,0.00,VWS V14.01,2013-09-11 05:57:00,
2013-09-10 20:02:00,74.5,70.7,30.03,NE,55,11.0,11.0,88,0.00,,,0.00,VWS V14.01,2013-09-11 06:02:00,
2013-09-10 20:07:00,74.4,70.6,30.03,NE,52,6.0,8.0,88,0.00,,,0.00,VWS V14.01,2013-09-11 06:07:00,
2013-09-10 20:12:00,74.5,70.4,30.04,NE,44,10.0,10.0,87,0.00,,,0.00,VWS V14.01,2013-09-11 06:12:00,
2013-09-10 20:18:00,74.5,70.4,30.04,NE,50,6.0,6.0,87,0.00,,,0.00,VWS V14.01,2013-09-11 06:18:00,
2013-09-10 20:23:00,74.5,70.4,30.04,ENE,57,7.0,8.0,87,0.00,,,0.00,VWS V14.01,2013-09-11 06:23:00,
2013-09-10 20:28:00,74.4,70.3,30.04,NE,46,9.0,9.0,87,0.00,,,0.00,VWS V14.01,2013-09-11 06:28:00,
2013-09-10 20:33:00,74.4,70.3,30.04,NNE,32,6.0,6.0,87,0.00,,,0.00,VWS V14.01,2013-09-11 06:33:00,
2013-09-10 20:38:00,74.4,70.3,30.05,ENE,67,6.0,6.0,87,0.00,,,0.00,VWS V14.01,2013-09-11 06:38:00,
2013-09-10 20:43:00,74.4,70.6,30.05,NE,37,6.0,6.0,88,0.00,,,0.00,VWS V14.01,2013-09-11 06:43:00,
2013-09-10 20:48:00,74.3,70.2,30.05,ENE,61,7.0,7.0,87,0.00,,,0.00,VWS V14.01,2013-09-11 06:48:00,
2013-09-10 20:53:00,74.2,70.4,30.05,NNE,32,10.0,10.0,88,0.00,,,0.00,VWS V14.01,2013-09-11 06:53:00,
2013-09-10 20:58:00,74.3,70.5,30.05,NE,50,6.0,6.0,88,0.00,,,0.00,VWS V14.01,2013-09-11 06:58:00,
2013-09-10 21:04:00,74.3,70.5,30.05,ENE,74,8.0,9.0,88,0.00,,,0.00,VWS V14.01,2013-09-11 07:04:00,
2013-09-10 21:09:00,74.2,70.8,30.06,NE,52,8.0,8.0,89,0.00,,,0.00,VWS V14.01,2013-09-11 07:09:00,
2013-09-10 21:14:00,74.2,70.8,30.06,ENE,70,9.0,12.0,89,0.00,,,0.00,VWS V14.01,2013-09-11 07:14:00,
2013-09-10 21:19:00,74.2,70.8,30.06,ENE,67,7.0,7.0,89,0.00,,,0.00,VWS V14.01,2013-09-11 07:19:00,
2013-09-10 21:24:00,74.1,70.7,30.06,NNE,23,7.0,9.0,89,0.00,,,0.00,VWS V14.01,2013-09-11 07:24:00,
2013-09-10 21:29:00,74.1,70.7,30.06,NE,40,5.0,9.0,89,0.00,,,0.00,VWS V14.01,2013-09-11 07:29:00,
2013-09-10 21:34:00,74.0,70.6,30.06,NE,56,4.0,4.0,89,0.00,,,0.00,VWS V14.01,2013-09-11 07:34:00,
2013-09-10 21:40:00,74.0,70.6,30.06,NE,47,7.0,8.0,89,0.00,,,0.00,VWS V14.01,2013-09-11 07:40:00,
2013-09-10 21:45:00,74.0,70.6,30.06,NE,38,6.0,7.0,89,0.00,,,0.00,VWS V14.01,2013-09-11 07:45:00,
2013-09-10 21:50:00,73.9,70.5,30.07,East,92,7.0,7.0,89,0.00,,,0.00,VWS V14.01,2013-09-11 07:50:00,
2013-09-10 21:55:00,73.9,70.5,30.07,NE,48,3.0,6.0,89,0.00,,,0.00,VWS V14.01,2013-09-11 07:55:00,
2013-09-10 22:00:00,73.8,70.4,30.06,NE,43,8.0,9.0,89,0.00,,,0.00,VWS V14.01,2013-09-11 08:00:00,
2013-09-10 22:05:00,73.8,70.0,30.07,NE,51,8.0,9.0,88,0.00,,,0.00,VWS V14.01,2013-09-11 08:05:00,
2013-09-10 22:11:00,73.9,70.1,30.06,NE,45,5.0,6.0,88,0.00,,,0.00,VWS V14.01,2013-09-11 08:11:00,
2013-09-10 22:16:00,73.9,70.1,30.06,NNE,28,10.0,10.0,88,0.00,,,0.00,VWS V14.01,2013-09-11 08:16:00,
2013-09-10 22:21:00,73.9,70.1,30.06,ENE,59,4.0,6.0,88,0.00,,,0.00,VWS V14.01,2013-09-11 08:21:00,
2013-09-10 22:26:00,73.9,69.8,30.06,NNE,26,9.0,9.0,87,0.00,,,0.00,VWS V14.01,2013-09-11 08:26:00,
2013-09-10 22:32:00,73.8,69.7,30.06,NNE,26,7.0,8.0,87,0.00,,,0.00,VWS V14.01,2013-09-11 08:32:00,
2013-09-10 22:37:00,73.8,69.7,30.06,NNE,20,6.0,6.0,87,0.00,,,0.00,VWS V14.01,2013-09-11 08:37:00,
2013-09-10 22:42:00,73.8,69.7,30.06,North,8,7.0,7.0,87,0.00,,,0.00,VWS V14.01,2013-09-11 08:42:00,
2013-09-10 22:47:00,73.9,69.4,30.06,NNE,20,5.0,6.0,86,0.00,,,0.00,VWS V14.01,2013-09-11 08:47:00,
2013-09-10 22:52:00,73.9,69.4,30.06,North,7,6.0,9.0,86,0.00,,,0.00,VWS V14.01,2013-09-11 08:52:00,
2013-09-10 22:57:00,73.9,69.4,30.05,NNE,23,12.0,12.0,86,0.00,,,0.00,VWS V14.01,2013-09-11 08:57:00,
2013-09-10 23:02:00,73.9,69.4,30.05,NE,45,5.0,5.0,86,0.00,,,0.00,VWS V14.01,2013-09-11 09:02:00,
2013-09-10 23:07:00,73.8,69.7,30.05,NNE,21,7.0,7.0,87,0.00,,,0.00,VWS V14.01,2013-09-11 09:07:00,
2013-09-10 23:13:00,73.8,69.7,30.05,NNE,31,9.0,9.0,87,0.00,,,0.00,VWS V14.01,2013-09-11 09:13:00,
2013-09-10 23:18:00,73.8,69.7,30.05,NNE,19,5.0,5.0,87,0.00,,,0.00,VWS V14.01,2013-09-11 09:18:00,
2013-09-10 23:23:00,73.7,69.6,30.05,NNE,31,4.0,6.0,87,0.00,,,0.00,VWS V14.01,2013-09-11 09:23:00,
2013-09-10 23:28:00,73.7,69.3,30.05,NNE,12,10.0,11.0,86,0.00,,,0.00,VWS V14.01,2013-09-11 09:28:00,
2013-09-10 23:33:00,73.7,68.9,30.05,NNE,16,6.0,6.0,85,0.00,,,0.00,VWS V14.01,2013-09-11 09:33:00,
2013-09-10 23:38:00,73.7,68.9,30.05,NNE,21,6.0,6.0,85,0.00,,,0.00,VWS V14.01,2013-09-11 09:38:00,
2013-09-10 23:43:00,73.8,68.7,30.05,NE,50,7.0,7.0,84,0.00,,,0.00,VWS V14.01,2013-09-11 09:43:00,
2013-09-10 23:48:00,73.9,68.4,30.05,NE,38,5.0,11.0,83,0.00,,,0.00,VWS V14.01,2013-09-11 09:48:00,
2013-09-10 23:53:00,74.0,68.2,30.04,NNE,30,4.0,9.0,82,0.00,,,0.00,VWS V14.01,2013-09-11 09:53:00,
2013-09-10 23:59:00,74.0,68.2,30.04,NNE,29,7.0,7.0,82,0.00,,,0.00,VWS V14.01,2013-09-11 09:59:00,